createdAt,value
2019-02-28T00:01:31.911Z,87.85
2019-02-28T00:03:59.126Z,88.22
2019-02-28T00:06:26.335Z,87.66
2019-02-28T00:08:53.761Z,88.71
2019-02-28T00:11:21.392Z,88.81
2019-02-28T00:13:49.263Z,88.07
2019-02-28T00:16:16.293Z,88.26
2019-02-28T00:18:43.389Z,87.49
2019-02-28T00:21:10.386Z,87.95
2019-02-28T00:23:37.525Z,88.03
2019-02-28T00:26:04.542Z,88.41
2019-02-28T00:28:31.506Z,89.20
2019-02-28T00:30:58.496Z,88.86
2019-02-28T00:33:25.460Z,89.33
2019-02-28T00:35:52.445Z,90.08
2019-02-28T00:38:19.419Z,89.04
2019-02-28T00:40:46.362Z,89.41
2019-02-28T00:43:13.347Z,90.45
2019-02-28T00:45:40.311Z,89.48
2019-02-28T00:48:07.286Z,89.05
2019-02-28T00:50:34.225Z,88.78
2019-02-28T00:53:01.216Z,89.72
2019-02-28T00:55:28.143Z,90.75
2019-02-28T00:57:55.969Z,91.51
2019-02-28T01:00:23.054Z,90.85
2019-02-28T01:02:53.487Z,90.40
2019-02-28T01:05:18.916Z,90.60
2019-02-28T01:07:48.072Z,90.90
2019-02-28T01:10:15.023Z,90.13
2019-02-28T01:12:42.074Z,89.35
2019-02-28T01:15:10.767Z,89.59
2019-02-28T01:17:37.896Z,90.94
2019-02-28T01:20:05.196Z,90.28
2019-02-28T01:22:32.160Z,91.21
2019-02-28T01:24:59.144Z,92.17
2019-02-28T01:27:26.134Z,91.32
2019-02-28T01:29:53.076Z,92.22
2019-02-28T01:32:20.083Z,92.01
2019-02-28T01:34:47.005Z,91.56
2019-02-28T01:37:13.987Z,93.07
2019-02-28T01:39:40.897Z,92.74
2019-02-28T01:42:07.883Z,94.41
2019-02-28T01:44:35.853Z,93.49
2019-02-28T01:47:03.610Z,92.12
2019-02-28T01:49:30.526Z,90.37
2019-02-28T01:51:57.470Z,91.53
2019-02-28T01:54:25.111Z,91.48
2019-02-28T01:56:53.338Z,91.59
2019-02-28T01:59:21.606Z,92.55
2019-02-28T02:01:49.216Z,91.39
2019-02-28T02:04:16.157Z,91.93
2019-02-28T02:06:43.103Z,92.44
2019-02-28T02:09:11.185Z,92.50
2019-02-28T02:11:38.823Z,94.58
2019-02-28T02:14:07.471Z,95.91
2019-02-28T02:16:34.626Z,96.08
2019-02-28T02:19:01.596Z,96.00
2019-02-28T02:21:31.537Z,96.19
2019-02-28T02:23:57.399Z,97.07
2019-02-28T02:26:24.525Z,97.33
2019-02-28T02:28:51.530Z,97.79
2019-02-28T02:31:18.505Z,96.49
2019-02-28T02:33:51.088Z,95.91
2019-02-28T02:36:16.269Z,96.90
2019-02-28T02:38:43.475Z,97.22
2019-02-28T02:41:10.841Z,97.20
2019-02-28T02:43:37.814Z,97.29
2019-02-28T02:46:04.740Z,97.70
2019-02-28T02:48:31.752Z,97.43
2019-02-28T02:50:58.721Z,96.98
2019-02-28T02:53:25.670Z,97.08
2019-02-28T02:55:52.670Z,98.26
2019-02-28T02:58:26.730Z,98.44
2019-02-28T03:00:51.193Z,98.76
2019-02-28T03:03:17.596Z,98.83
2019-02-28T03:05:44.521Z,98.75
2019-02-28T03:08:11.519Z,98.00
2019-02-28T03:10:38.457Z,98.32
2019-02-28T03:13:06.460Z,97.88
2019-02-28T03:15:33.710Z,96.57
2019-02-28T03:18:00.704Z,98.24
2019-02-28T03:20:27.630Z,98.83
2019-02-28T03:22:54.601Z,98.88
2019-02-28T03:25:27.853Z,98.99
2019-02-28T03:27:56.507Z,99.03
2019-02-28T03:30:28.669Z,99.00
2019-02-28T03:32:49.800Z,98.28
2019-02-28T03:35:16.787Z,98.26
2019-02-28T03:37:43.820Z,98.34
2019-02-28T03:40:10.805Z,97.76
2019-02-28T03:42:37.831Z,97.22
2019-02-28T03:45:05.033Z,96.96
2019-02-28T03:47:31.967Z,97.70
2019-02-28T03:50:11.551Z,97.54
2019-02-28T03:52:44.048Z,96.46
2019-02-28T03:55:07.389Z,97.65
2019-02-28T03:57:34.304Z,97.11
2019-02-28T04:00:01.398Z,96.77
2019-02-28T04:02:28.448Z,97.82
2019-02-28T04:04:55.501Z,98.35
2019-02-28T04:07:22.420Z,98.57
2019-02-28T04:09:49.368Z,98.93
2019-02-28T04:12:16.314Z,98.99
2019-02-28T04:14:43.300Z,97.88
2019-02-28T04:17:10.222Z,97.95
2019-02-28T04:19:37.192Z,97.17
2019-02-28T04:22:04.154Z,97.87
2019-02-28T04:24:31.150Z,98.66
2019-02-28T04:26:58.078Z,98.79
2019-02-28T04:29:30.013Z,98.47
2019-02-28T04:31:53.911Z,98.64
2019-02-28T04:34:20.877Z,98.48
2019-02-28T04:36:47.822Z,98.99
2019-02-28T04:39:14.795Z,99.04
2019-02-28T04:41:41.740Z,99.10
2019-02-28T04:44:08.730Z,99.04
2019-02-28T04:46:35.636Z,98.96
2019-02-28T04:49:02.601Z,97.54
2019-02-28T04:51:29.554Z,98.16
2019-02-28T04:53:56.520Z,98.59
2019-02-28T04:56:23.444Z,98.18
2019-02-28T04:58:50.416Z,98.67
2019-02-28T05:01:17.340Z,99.08
2019-02-28T05:03:44.281Z,99.64
2019-02-28T05:06:11.254Z,100.00
2019-02-28T05:08:39.086Z,100.00
2019-02-28T05:11:06.750Z,100.00
2019-02-28T05:13:33.703Z,100.00
2019-02-28T05:16:01.009Z,100.00
2019-02-28T05:18:28.253Z,100.00
2019-02-28T05:20:55.247Z,100.00
2019-02-28T05:23:22.196Z,100.00
2019-02-28T05:25:52.079Z,100.00
2019-02-28T05:28:17.986Z,100.00
2019-02-28T05:30:44.974Z,100.00
2019-02-28T05:33:11.924Z,100.00
2019-02-28T05:35:38.878Z,100.00
2019-02-28T05:38:05.832Z,100.00
2019-02-28T05:40:32.799Z,100.00
2019-02-28T05:42:59.737Z,100.00
2019-02-28T05:45:26.737Z,100.00
2019-02-28T05:47:53.745Z,100.00
2019-02-28T05:50:20.695Z,100.00
2019-02-28T05:52:47.627Z,100.00
2019-02-28T05:55:14.590Z,100.00
2019-02-28T05:57:43.415Z,100.00
2019-02-28T06:00:10.523Z,100.00
2019-02-28T06:02:37.436Z,100.00
2019-02-28T06:05:04.882Z,100.00
2019-02-28T06:07:31.841Z,100.00
2019-02-28T06:09:58.810Z,100.00
2019-02-28T06:12:25.753Z,100.00
2019-02-28T06:14:52.756Z,100.00
2019-02-28T06:17:20.846Z,100.00
2019-02-28T06:19:48.851Z,100.00
2019-02-28T06:22:15.792Z,100.00
2019-02-28T06:24:44.844Z,100.00
2019-02-28T06:27:11.594Z,100.00
2019-02-28T06:29:38.512Z,100.00
2019-02-28T06:32:06.060Z,100.00
2019-02-28T06:34:33.427Z,100.00
2019-02-28T06:37:03.840Z,100.00
2019-02-28T06:39:29.297Z,100.00
2019-02-28T06:41:56.270Z,100.00
2019-02-28T06:44:24.198Z,100.00
2019-02-28T06:46:52.183Z,100.00
2019-02-28T06:49:19.102Z,100.00
2019-02-28T06:51:48.401Z,100.00
2019-02-28T06:54:14.888Z,100.00
2019-02-28T06:56:41.851Z,100.00
2019-02-28T06:59:09.089Z,100.00
2019-02-28T07:01:36.128Z,100.00
2019-02-28T07:04:03.074Z,100.00
2019-02-28T07:06:30.017Z,100.00
2019-02-28T07:09:02.152Z,100.00
2019-02-28T07:11:26.333Z,100.00
2019-02-28T07:13:53.335Z,100.00
2019-02-28T07:16:20.302Z,100.00
2019-02-28T07:18:47.217Z,100.00
2019-02-28T07:21:14.182Z,100.00
2019-02-28T07:23:41.270Z,100.00
2019-02-28T07:26:08.351Z,100.00
2019-02-28T07:28:37.454Z,100.00
2019-02-28T07:31:04.189Z,100.00
2019-02-28T07:33:31.102Z,100.00
2019-02-28T07:35:58.061Z,100.00
2019-02-28T07:38:25.649Z,100.00
2019-02-28T07:40:53.862Z,100.00
2019-02-28T07:43:20.824Z,100.00
2019-02-28T07:45:47.786Z,100.00
2019-02-28T07:48:14.700Z,100.00
2019-02-28T07:50:43.490Z,100.00
2019-02-28T07:53:10.557Z,100.00
2019-02-28T07:55:37.587Z,100.00
2019-02-28T07:58:04.574Z,100.00
2019-02-28T08:00:31.539Z,100.00
2019-02-28T08:02:58.524Z,100.00
2019-02-28T08:05:30.118Z,100.00
2019-02-28T08:07:54.496Z,100.00
2019-02-28T08:10:21.462Z,100.00
2019-02-28T08:12:48.450Z,100.00
2019-02-28T08:15:21.406Z,100.00
2019-02-28T08:17:46.930Z,100.00
2019-02-28T08:20:14.804Z,100.00
2019-02-28T08:22:41.940Z,100.00
2019-02-28T08:25:09.798Z,100.00
2019-02-28T08:27:36.771Z,100.00
2019-02-28T08:30:05.110Z,100.00
2019-02-28T08:32:33.823Z,100.00
2019-02-28T08:35:00.905Z,100.00
2019-02-28T08:37:27.871Z,100.00
2019-02-28T08:39:54.863Z,100.00
2019-02-28T08:42:21.823Z,100.00
2019-02-28T08:44:48.744Z,100.00
2019-02-28T08:47:17.849Z,100.00
2019-02-28T08:49:45.570Z,100.00
2019-02-28T08:52:12.638Z,100.00
2019-02-28T08:54:39.587Z,99.79
2019-02-28T08:57:06.617Z,98.94
2019-02-28T08:59:33.659Z,98.94
2019-02-28T09:02:00.605Z,98.68
2019-02-28T09:04:27.580Z,98.04
2019-02-28T09:06:54.509Z,98.96
2019-02-28T09:09:21.480Z,99.20
2019-02-28T09:11:48.423Z,98.99
2019-02-28T09:14:17.897Z,98.37
2019-02-28T09:16:44.245Z,97.97
2019-02-28T09:19:11.196Z,97.69
2019-02-28T09:21:38.117Z,97.71
2019-02-28T09:24:05.076Z,96.66
2019-02-28T09:26:32.011Z,95.93
2019-02-28T09:28:59.028Z,95.28
2019-02-28T09:31:26.002Z,94.49
2019-02-28T09:33:55.392Z,94.78
2019-02-28T09:36:22.015Z,94.24
2019-02-28T09:38:56.793Z,93.85
2019-02-28T09:41:19.077Z,93.79
2019-02-28T09:43:46.112Z,93.69
2019-02-28T09:46:15.599Z,93.34
2019-02-28T09:48:41.944Z,93.14
2019-02-28T09:51:08.875Z,92.64
2019-02-28T09:53:35.862Z,92.43
2019-02-28T09:56:02.780Z,91.52
2019-02-28T09:58:30.088Z,91.48
2019-02-28T10:00:57.066Z,91.80
2019-02-28T10:03:24.153Z,90.70
2019-02-28T10:05:51.130Z,90.22
2019-02-28T10:08:18.122Z,89.34
2019-02-28T10:10:45.163Z,89.19
2019-02-28T10:13:14.582Z,89.22
2019-02-28T10:15:41.692Z,88.80
2019-02-28T10:18:09.409Z,89.15
2019-02-28T10:20:36.438Z,89.19
2019-02-28T10:23:03.533Z,89.12
2019-02-28T10:25:30.559Z,88.06
2019-02-28T10:28:01.631Z,88.75
2019-02-28T10:30:31.882Z,88.72
2019-02-28T10:32:55.712Z,88.40
2019-02-28T10:35:22.672Z,87.38
2019-02-28T10:37:50.453Z,86.94
2019-02-28T10:40:19.375Z,87.60
2019-02-28T10:42:46.383Z,87.73
2019-02-28T10:45:13.850Z,86.64
2019-02-28T10:47:40.916Z,86.86
2019-02-28T10:50:11.103Z,86.85
2019-02-28T10:52:38.048Z,85.88
2019-02-28T10:55:06.043Z,85.09
2019-02-28T10:57:32.968Z,84.43
2019-02-28T10:59:59.938Z,84.79
2019-02-28T11:02:27.050Z,84.87
2019-02-28T11:04:54.667Z,85.01
2019-02-28T11:07:21.639Z,85.25
2019-02-28T11:09:50.929Z,84.99
2019-02-28T11:12:20.292Z,84.67
2019-02-28T11:14:46.877Z,83.09
2019-02-28T11:17:13.961Z,82.43
2019-02-28T11:19:41.124Z,83.30
2019-02-28T11:22:08.117Z,82.51
2019-02-28T11:24:35.069Z,81.53
2019-02-28T11:27:04.360Z,81.86
2019-02-28T11:29:35.187Z,81.93
2019-02-28T11:32:00.675Z,81.12
2019-02-28T11:34:27.865Z,81.44
2019-02-28T11:36:54.899Z,81.06
2019-02-28T11:39:21.879Z,81.78
2019-02-28T11:41:49.298Z,80.36
2019-02-28T11:44:17.701Z,79.08
2019-02-28T11:46:45.442Z,78.82
2019-02-28T11:49:13.685Z,77.89
2019-02-28T11:51:40.666Z,79.02
2019-02-28T11:54:07.649Z,79.03
2019-02-28T11:56:34.945Z,79.24
2019-02-28T11:59:01.878Z,81.00
2019-02-28T12:01:28.952Z,80.24
2019-02-28T12:03:55.915Z,78.87
2019-02-28T12:06:25.646Z,78.71
2019-02-28T12:08:52.125Z,76.95
2019-02-28T12:11:19.099Z,78.08
2019-02-28T12:13:46.052Z,78.34
2019-02-28T12:16:16.224Z,78.54
2019-02-28T12:18:42.903Z,77.80
2019-02-28T12:21:09.885Z,77.36
2019-02-28T12:23:36.869Z,77.75
2019-02-28T12:26:03.853Z,76.71
2019-02-28T12:28:30.876Z,75.46
2019-02-28T12:31:00.228Z,75.41
2019-02-28T12:33:27.172Z,74.68
2019-02-28T12:35:55.458Z,73.66
2019-02-28T12:38:25.973Z,73.28
2019-02-28T12:40:52.252Z,73.45
2019-02-28T12:43:19.220Z,73.48
2019-02-28T12:45:47.321Z,73.65
2019-02-28T12:48:14.734Z,73.54
2019-02-28T12:50:41.813Z,73.05
2019-02-28T12:53:08.749Z,73.14
2019-02-28T12:55:38.973Z,73.95
2019-02-28T12:58:06.948Z,73.49
2019-02-28T13:00:35.372Z,74.00
2019-02-28T13:03:02.305Z,75.45
2019-02-28T13:05:30.210Z,75.56
2019-02-28T13:07:57.131Z,75.41
2019-02-28T13:10:28.096Z,75.63
2019-02-28T13:12:53.152Z,75.66
2019-02-28T13:15:20.166Z,76.44
2019-02-28T13:17:47.123Z,76.41
2019-02-28T13:20:15.938Z,76.24
2019-02-28T13:22:43.062Z,76.51
2019-02-28T13:25:11.800Z,75.67
2019-02-28T13:27:41.458Z,76.04
2019-02-28T13:30:11.853Z,76.22
2019-02-28T13:32:39.248Z,76.58
2019-02-28T13:35:09.299Z,75.43
2019-02-28T13:37:37.510Z,74.39
2019-02-28T13:40:08.596Z,73.59
2019-02-28T13:42:36.179Z,72.31
2019-02-28T13:45:03.950Z,72.75
2019-02-28T13:47:31.070Z,71.90
2019-02-28T13:49:58.067Z,70.74
2019-02-28T13:52:25.010Z,71.08
2019-02-28T13:54:51.957Z,70.38
2019-02-28T13:57:18.941Z,70.39
2019-02-28T13:59:45.967Z,70.21
2019-02-28T14:02:13.710Z,70.48
2019-02-28T14:04:40.661Z,71.02
2019-02-28T14:07:07.987Z,71.49
2019-02-28T14:09:35.119Z,69.59
2019-02-28T14:12:02.133Z,69.62
2019-02-28T14:14:29.073Z,69.95
2019-02-28T14:16:58.371Z,70.55
2019-02-28T14:19:24.857Z,70.06
2019-02-28T14:21:51.802Z,70.22
2019-02-28T14:24:18.781Z,69.47
2019-02-28T14:26:46.573Z,69.64
2019-02-28T14:29:14.626Z,69.94
2019-02-28T14:31:41.653Z,68.96
2019-02-28T14:34:08.574Z,68.95
2019-02-28T14:36:35.581Z,70.19
2019-02-28T14:39:08.413Z,69.28
2019-02-28T14:41:33.990Z,69.73
2019-02-28T14:44:01.103Z,69.80
2019-02-28T14:46:28.085Z,69.42
2019-02-28T14:48:55.029Z,69.93
2019-02-28T14:51:21.981Z,70.45
2019-02-28T14:53:50.006Z,70.70
2019-02-28T14:56:17.294Z,71.31
2019-02-28T14:58:44.230Z,70.40
2019-02-28T15:01:16.756Z,71.57
2019-02-28T15:03:40.278Z,70.69
2019-02-28T15:06:07.334Z,70.68
2019-02-28T15:08:34.316Z,71.35
2019-02-28T15:11:02.157Z,70.63
2019-02-28T15:13:30.484Z,71.03
2019-02-28T15:15:58.164Z,71.25
2019-02-28T15:18:25.177Z,71.35
2019-02-28T15:20:52.564Z,72.03
2019-02-28T15:23:19.540Z,72.64
2019-02-28T15:25:46.495Z,72.28
2019-02-28T15:28:14.060Z,73.11
2019-02-28T15:30:41.666Z,73.12
2019-02-28T15:33:09.374Z,73.68
2019-02-28T15:35:36.379Z,73.67
2019-02-28T15:38:05.624Z,73.75
2019-02-28T15:40:33.606Z,73.80
2019-02-28T15:43:00.627Z,74.99
2019-02-28T15:45:27.562Z,74.94
2019-02-28T15:47:59.146Z,74.86
2019-02-28T15:50:26.997Z,74.83
2019-02-28T15:52:54.593Z,74.89
2019-02-28T15:55:21.991Z,74.76
2019-02-28T15:57:48.996Z,74.11
2019-02-28T16:00:22.086Z,74.30
2019-02-28T16:02:48.034Z,74.01
2019-02-28T16:05:14.973Z,74.24
2019-02-28T16:07:41.952Z,75.29
2019-02-28T16:10:10.871Z,75.12
2019-02-28T16:12:37.924Z,75.18
2019-02-28T16:15:08.666Z,75.63
2019-02-28T16:17:36.677Z,75.33
2019-02-28T16:20:04.798Z,75.91
2019-02-28T16:22:32.000Z,76.17
2019-02-28T16:24:59.172Z,76.39
2019-02-28T16:27:29.530Z,76.68
2019-02-28T16:29:56.707Z,76.74
2019-02-28T16:32:23.864Z,77.02
2019-02-28T16:34:53.112Z,77.29
2019-02-28T16:37:23.185Z,77.00
2019-02-28T16:39:50.171Z,77.42
2019-02-28T16:42:17.581Z,77.02
2019-02-28T16:44:44.847Z,77.35
2019-02-28T16:47:11.858Z,77.62
2019-02-28T16:49:41.384Z,78.12
2019-02-28T16:52:07.826Z,78.08
2019-02-28T16:54:34.996Z,78.87
2019-02-28T16:57:02.044Z,81.89
2019-02-28T16:59:31.613Z,83.38
2019-02-28T17:01:59.509Z,84.03
2019-02-28T17:04:26.696Z,84.55
2019-02-28T17:06:55.512Z,85.42
2019-02-28T17:09:30.229Z,85.78
2019-02-28T17:12:05.368Z,86.71
2019-02-28T17:14:32.532Z,86.81
2019-02-28T17:17:11.807Z,86.99
2019-02-28T17:19:38.691Z,87.16
2019-02-28T17:22:05.669Z,87.38
2019-02-28T17:24:32.808Z,86.90
2019-02-28T17:27:15.198Z,86.88
2019-02-28T17:29:46.737Z,87.04
2019-02-28T17:32:14.090Z,86.90
2019-02-28T17:34:41.077Z,86.66
2019-02-28T17:37:08.107Z,86.98
2019-02-28T17:39:35.082Z,87.36
2019-02-28T17:42:08.278Z,87.79
2019-02-28T17:44:56.907Z,86.94
2019-02-28T17:47:41.470Z,87.17
2019-02-28T17:50:34.904Z,87.62
2019-02-28T17:53:38.693Z,87.54
2019-02-28T17:56:58.560Z,87.61
2019-02-28T18:00:16.221Z,88.13
2019-02-28T18:03:21.640Z,88.49
2019-02-28T18:06:14.084Z,88.66
2019-02-28T18:09:15.489Z,89.32
2019-02-28T18:12:01.449Z,89.19
2019-02-28T18:14:42.450Z,89.30
2019-02-28T18:17:59.449Z,89.52
2019-02-28T18:21:11.360Z,89.95
2019-02-28T18:24:32.165Z,90.31
2019-02-28T18:27:22.642Z,90.16
2019-02-28T18:30:27.567Z,90.22
2019-02-28T18:32:54.710Z,90.45
2019-02-28T18:35:22.006Z,90.97
2019-02-28T18:37:49.237Z,91.10
2019-02-28T18:40:16.844Z,91.16
2019-02-28T18:42:43.789Z,90.94
2019-02-28T18:45:10.992Z,91.61
2019-02-28T18:47:39.741Z,90.95
2019-02-28T18:50:07.389Z,91.89
2019-02-28T18:52:34.301Z,92.49
2019-02-28T18:55:06.132Z,92.42
2019-02-28T18:57:30.111Z,92.73
2019-02-28T18:59:57.072Z,92.59
2019-02-28T19:02:24.051Z,92.28
2019-02-28T19:04:51.005Z,92.83
2019-02-28T19:07:21.345Z,92.17
2019-02-28T19:09:48.526Z,92.74
2019-02-28T19:12:15.512Z,92.76
2019-02-28T19:14:42.512Z,93.13
2019-02-28T19:17:09.475Z,92.75
2019-02-28T19:19:36.420Z,92.74
2019-02-28T19:22:03.361Z,92.65
2019-02-28T19:24:30.390Z,93.20
2019-02-28T19:26:57.324Z,92.88
2019-02-28T19:29:24.267Z,93.27
2019-02-28T19:31:51.259Z,92.70
2019-02-28T19:34:19.563Z,92.94
2019-02-28T19:36:46.539Z,93.03
2019-02-28T19:39:13.480Z,92.85
2019-02-28T19:41:40.683Z,92.11
2019-02-28T19:44:09.380Z,92.64
2019-02-28T19:46:36.344Z,93.34
2019-02-28T19:49:03.415Z,93.32
2019-02-28T19:51:30.445Z,93.44
2019-02-28T19:53:57.497Z,92.91
2019-02-28T19:56:24.493Z,92.79
2019-02-28T19:58:51.435Z,92.89
2019-02-28T20:01:19.310Z,92.99
2019-02-28T20:03:46.458Z,92.67
2019-02-28T20:06:13.464Z,92.65
2019-02-28T20:08:40.425Z,92.54
2019-02-28T20:11:07.507Z,93.17
2019-02-28T20:13:34.509Z,93.34
2019-02-28T20:16:01.498Z,93.87
2019-02-28T20:18:28.490Z,94.98
2019-02-28T20:20:58.823Z,95.75
2019-02-28T20:23:25.906Z,97.12
2019-02-28T20:25:53.046Z,99.44
2019-02-28T20:28:24.656Z,100.00
2019-02-28T20:30:54.882Z,100.00
2019-02-28T20:33:22.078Z,100.00
2019-02-28T20:35:49.122Z,100.00
2019-02-28T20:38:16.053Z,100.00
2019-02-28T20:40:43.005Z,100.00
2019-02-28T20:43:10.427Z,100.00
2019-02-28T20:45:37.507Z,100.00
2019-02-28T20:48:05.721Z,100.00
2019-02-28T20:50:35.512Z,100.00
2019-02-28T20:53:02.854Z,100.00
2019-02-28T20:55:30.138Z,100.00
2019-02-28T20:57:57.269Z,100.00
2019-02-28T21:00:26.012Z,100.00
2019-02-28T21:02:52.988Z,100.00
2019-02-28T21:05:20.222Z,100.00
2019-02-28T21:07:47.211Z,100.00
2019-02-28T21:10:14.311Z,100.00
2019-02-28T21:12:41.517Z,100.00
2019-02-28T21:15:09.181Z,100.00
2019-02-28T21:17:36.320Z,100.00
2019-02-28T21:20:04.557Z,100.00
2019-02-28T21:22:31.631Z,100.00
2019-02-28T21:24:58.605Z,100.00
2019-02-28T21:27:25.830Z,100.00
2019-02-28T21:29:52.774Z,100.00
2019-02-28T21:32:19.807Z,100.00
2019-02-28T21:34:46.808Z,100.00
2019-02-28T21:37:13.907Z,100.00
2019-02-28T21:39:41.039Z,100.00
2019-02-28T21:42:08.442Z,100.00
2019-02-28T21:44:35.629Z,100.00
2019-02-28T21:47:02.624Z,100.00
2019-02-28T21:49:29.720Z,100.00
2019-02-28T21:51:56.790Z,100.00
2019-02-28T21:54:23.801Z,100.00
2019-02-28T21:56:50.992Z,100.00
2019-02-28T21:59:18.212Z,100.00
2019-02-28T22:01:45.220Z,100.00
2019-02-28T22:04:12.220Z,100.00
2019-02-28T22:06:39.422Z,100.00
2019-02-28T22:09:07.295Z,100.00
2019-02-28T22:11:34.233Z,100.00
2019-02-28T22:14:01.215Z,100.00
2019-02-28T22:16:28.185Z,100.00
2019-02-28T22:18:55.172Z,100.00
2019-02-28T22:21:22.118Z,100.00
2019-02-28T22:23:49.073Z,100.00
2019-02-28T22:26:16.017Z,100.00
2019-02-28T22:28:42.985Z,100.00
2019-02-28T22:31:28.209Z,100.00
2019-02-28T22:34:02.176Z,100.00
2019-02-28T22:36:40.852Z,100.00
2019-02-28T22:39:09.509Z,100.00
2019-02-28T22:41:36.467Z,100.00
2019-02-28T22:44:03.663Z,100.00
2019-02-28T22:46:30.601Z,100.00
2019-02-28T22:48:57.613Z,100.00
2019-02-28T22:51:24.530Z,100.00
2019-02-28T22:53:51.547Z,100.00
2019-02-28T22:56:18.572Z,100.00
2019-02-28T22:58:45.530Z,100.00
2019-02-28T23:01:14.891Z,100.00
2019-02-28T23:03:41.818Z,100.00
2019-02-28T23:06:08.899Z,100.00
2019-02-28T23:08:35.843Z,100.00
2019-02-28T23:11:03.080Z,100.00
2019-02-28T23:13:30.058Z,100.00
2019-02-28T23:15:56.995Z,100.00
2019-02-28T23:18:24.075Z,100.00
2019-02-28T23:20:51.052Z,100.00
2019-02-28T23:23:17.954Z,100.00
2019-02-28T23:25:44.943Z,100.00
2019-02-28T23:28:14.382Z,100.00
2019-02-28T23:31:32.204Z,100.00
2019-02-28T23:34:01.782Z,100.00
2019-02-28T23:36:28.730Z,100.00
2019-02-28T23:38:55.784Z,100.00
2019-02-28T23:41:22.726Z,100.00
2019-02-28T23:43:49.740Z,100.00
2019-02-28T23:46:16.668Z,100.00
2019-02-28T23:48:43.674Z,100.00
2019-02-28T23:51:10.653Z,100.00
2019-02-28T23:53:37.580Z,100.00
2019-02-28T23:56:04.551Z,100.00
2019-02-28T23:58:31.510Z,100.00
